Time;durP1;ratioP1;P1;durP2;ratioP2;P2;SDS_P1;SDS_P2;PMS_P1;PMS_P2;Temp;Humidity;BMP_temperature;BMP_pressure;BME280_temperature;BME280_humidity;BME280_pressure;Samples;Min_cycle;Max_cycle;Signal;HPM_P1;HPM_P2
2023/07/02 00:00:51;0.00;0.00;0.62;0.00;0.00;0.62;2.17;1.67;;;29.60;28.50;;;;;;2236018;62;20381;-62
2023/07/02 00:03:38;0.00;0.00;0.62;0.00;0.00;0.62;2.60;1.93;;;29.60;28.50;;;;;;2236682;62;20488;-63
2023/07/02 00:06:22;0.00;0.00;0.62;0.00;0.00;0.62;1.97;1.53;;;29.60;28.50;;;;;;2236553;62;20643;-63
2023/07/02 00:09:07;0.00;0.00;0.62;0.00;0.00;0.62;2.37;2.00;;;29.60;28.50;;;;;;2235389;62;20370;-62
2023/07/02 00:11:52;0.00;0.00;0.62;0.00;0.00;0.62;2.43;2.10;;;29.60;28.50;;;;;;2236310;62;20944;-64
2023/07/02 00:14:37;0.00;0.00;0.62;0.00;0.00;0.62;2.60;1.90;;;29.60;28.50;;;;;;2236439;62;20458;-64
2023/07/02 00:17:23;0.00;0.00;0.62;0.00;0.00;0.62;2.70;2.37;;;29.50;28.40;;;;;;2236053;62;20414;-64
2023/07/02 00:20:16;0.00;0.00;0.62;0.00;0.00;0.62;2.50;1.73;;;29.60;28.50;;;;;;2236246;62;20395;-62
2023/07/02 00:23:02;0.00;0.00;0.62;0.00;0.00;0.62;2.40;2.00;;;29.60;28.50;;;;;;2235883;62;20799;-63
2023/07/02 00:25:46;0.00;0.00;0.62;0.00;0.00;0.62;3.00;2.10;;;29.60;28.50;;;;;;2236590;62;20939;-63
2023/07/02 00:28:31;0.00;0.00;0.62;0.00;0.00;0.62;2.53;2.17;;;29.50;28.40;;;;;;2236115;62;20866;-63
2023/07/02 00:31:16;0.00;0.00;0.62;0.00;0.00;0.62;2.20;1.80;;;29.60;28.40;;;;;;2235707;62;20414;-64
2023/07/02 00:34:03;0.00;0.00;0.62;0.00;0.00;0.62;1.87;1.60;;;29.60;28.40;;;;;;2236379;62;20402;-63
2023/07/02 00:36:48;0.00;0.00;0.62;0.00;0.00;0.62;2.13;1.93;;;29.50;28.40;;;;;;2236128;62;20398;-64
2023/07/02 00:39:33;0.00;0.00;0.62;0.00;0.00;0.62;2.27;1.83;;;29.60;28.40;;;;;;2235452;62;20419;-63
2023/07/02 00:42:17;0.00;0.00;0.62;0.00;0.00;0.62;2.10;1.80;;;29.50;28.30;;;;;;2236293;62;20445;-62
2023/07/02 00:45:04;0.00;0.00;0.62;0.00;0.00;0.62;2.57;1.97;;;29.50;28.30;;;;;;2236122;62;20830;-62
2023/07/02 00:47:49;0.00;0.00;0.62;0.00;0.00;0.62;2.17;1.90;;;29.50;28.30;;;;;;2236112;62;20450;-63
2023/07/02 00:50:36;0.00;0.00;0.62;0.00;0.00;0.62;2.17;1.70;;;29.50;28.30;;;;;;2236202;62;20403;-63
2023/07/02 00:53:21;0.00;0.00;0.62;0.00;0.00;0.62;2.33;2.13;;;29.60;28.40;;;;;;2235579;62;20442;-63
2023/07/02 00:56:06;0.00;0.00;0.62;0.00;0.00;0.62;1.90;1.50;;;29.50;28.30;;;;;;2236222;62;20363;-63
2023/07/02 00:58:53;0.00;0.00;0.62;0.00;0.00;0.62;2.03;1.53;;;29.50;28.30;;;;;;2236085;62;21010;-64
2023/07/02 01:01:39;0.00;0.00;0.62;0.00;0.00;0.62;3.90;1.97;;;29.50;28.30;;;;;;2235740;62;20418;-62
2023/07/02 01:04:27;0.00;0.00;0.62;0.00;0.00;0.62;2.43;1.70;;;29.50;28.80;;;;;;2236482;62;20478;-63
2023/07/02 01:07:13;0.00;0.00;0.62;0.00;0.00;0.62;2.50;1.60;;;29.50;28.30;;;;;;2235589;62;20434;-63
2023/07/02 01:09:58;0.00;0.00;0.62;0.00;0.00;0.62;2.57;1.70;;;29.50;28.30;;;;;;2236148;62;20414;-64
2023/07/02 01:12:45;0.00;0.00;0.62;0.00;0.00;0.62;1.83;1.40;;;29.50;28.20;;;;;;2236008;62;20781;-63
2023/07/02 01:15:31;0.00;0.00;0.62;0.00;0.00;0.62;1.87;1.57;;;29.50;28.20;;;;;;2235729;62;20366;-64
2023/07/02 01:18:16;0.00;0.00;0.62;0.00;0.00;0.62;2.30;1.60;;;29.50;28.20;;;;;;2236231;62;20414;-63
2023/07/02 01:21:06;0.00;0.00;0.62;0.00;0.00;0.62;2.03;1.63;;;29.50;28.20;;;;;;2236221;62;20374;-62
2023/07/02 01:23:51;0.00;0.00;0.62;0.00;0.00;0.62;2.50;1.53;;;29.50;28.20;;;;;;2232484;62;20379;-62
2023/07/02 01:26:37;0.00;0.00;0.62;0.00;0.00;0.62;3.60;1.60;;;29.50;28.20;;;;;;2236368;62;20370;-62
2023/07/02 01:29:21;0.00;0.00;0.62;0.00;0.00;0.62;2.63;2.40;;;29.50;28.20;;;;;;2235001;62;20383;-63
2023/07/02 01:32:08;0.00;0.00;0.62;0.00;0.00;0.62;2.20;1.40;;;29.50;28.20;;;;;;2236449;62;20413;-63
2023/07/02 01:35:00;0.00;0.00;0.62;0.00;0.00;0.62;2.10;1.40;;;29.50;28.20;;;;;;2235758;62;20406;-63
2023/07/02 01:37:46;0.00;0.00;0.62;0.00;0.00;0.62;1.70;1.20;;;29.50;28.20;;;;;;2235291;62;20458;-61
2023/07/02 01:40:31;0.00;0.00;0.62;0.00;0.00;0.62;2.00;1.60;;;29.50;28.20;;;;;;2235982;62;20366;-63
2023/07/02 01:43:16;0.00;0.00;0.62;0.00;0.00;0.62;1.93;1.50;;;29.50;28.20;;;;;;2236406;62;20386;-63
2023/07/02 01:46:01;0.00;0.00;0.62;0.00;0.00;0.62;2.00;1.73;;;29.50;28.10;;;;;;2235777;62;20358;-62
2023/07/02 01:48:46;0.00;0.00;0.62;0.00;0.00;0.62;2.00;1.50;;;29.50;28.10;;;;;;2235991;62;20367;-63
2023/07/02 01:51:32;0.00;0.00;0.62;0.00;0.00;0.62;2.27;1.60;;;29.50;28.10;;;;;;2236085;62;20370;-62
2023/07/02 01:54:18;0.00;0.00;0.62;0.00;0.00;0.62;1.80;1.40;;;29.50;28.10;;;;;;2235820;62;20438;-62
2023/07/02 01:57:04;0.00;0.00;0.62;0.00;0.00;0.62;4.27;1.30;;;29.50;28.10;;;;;;2236384;62;20389;-61
2023/07/02 01:59:48;0.00;0.00;0.62;0.00;0.00;0.62;1.80;1.53;;;29.50;28.10;;;;;;2234679;62;20370;-62
2023/07/02 02:02:33;0.00;0.00;0.62;0.00;0.00;0.62;1.60;1.20;;;29.50;28.10;;;;;;2236760;62;20481;-62
2023/07/02 02:05:18;0.00;0.00;0.62;0.00;0.00;0.62;1.93;1.57;;;29.50;28.10;;;;;;2236383;62;20789;-63
2023/07/02 02:08:03;0.00;0.00;0.62;0.00;0.00;0.62;2.00;1.47;;;29.50;28.10;;;;;;2235082;62;20630;-63
2023/07/02 02:10:49;0.00;0.00;0.62;0.00;0.00;0.62;2.03;1.60;;;29.50;28.10;;;;;;2236247;62;20426;-63
2023/07/02 02:13:34;0.00;0.00;0.62;0.00;0.00;0.62;1.60;1.13;;;29.50;28.10;;;;;;2235681;62;20439;-60
2023/07/02 02:16:20;0.00;0.00;0.62;0.00;0.00;0.62;1.93;1.50;;;29.50;28.00;;;;;;2236071;62;20413;-62
2023/07/02 02:19:05;0.00;0.00;0.62;0.00;0.00;0.62;2.00;1.50;;;29.50;28.00;;;;;;2235510;62;20446;-62
2023/07/02 02:21:50;0.00;0.00;0.62;0.00;0.00;0.62;2.33;1.53;;;29.50;28.00;;;;;;2232308;62;20374;-63
2023/07/02 02:24:34;0.00;0.00;0.62;0.00;0.00;0.62;1.83;1.23;;;29.50;28.50;;;;;;2235798;62;20418;-62
2023/07/02 02:27:20;0.00;0.00;0.62;0.00;0.00;0.62;2.40;1.17;;;29.50;28.00;;;;;;2235959;62;20410;-63
2023/07/02 02:30:07;0.00;0.00;0.62;0.00;0.00;0.62;2.10;1.53;;;29.40;28.50;;;;;;2234690;62;20366;-62
2023/07/02 02:32:54;0.00;0.00;0.62;0.00;0.00;0.62;1.60;1.20;;;29.40;27.90;;;;;;2236420;62;20398;-62
2023/07/02 02:35:39;0.00;0.00;0.62;0.00;0.00;0.62;1.73;1.20;;;29.40;27.90;;;;;;2235634;62;21040;-63
2023/07/02 02:38:24;0.00;0.00;0.62;0.00;0.00;0.62;1.77;1.30;;;29.40;27.90;;;;;;2234853;62;20370;-62
2023/07/02 02:41:09;0.00;0.00;0.62;0.00;0.00;0.62;2.10;1.50;;;29.40;27.90;;;;;;2236079;62;20366;-63
2023/07/02 02:43:59;0.00;0.00;0.62;0.00;0.00;0.62;3.20;1.70;;;29.40;27.90;;;;;;2235011;62;20434;-62
2023/07/02 02:46:44;0.00;0.00;0.62;0.00;0.00;0.62;2.43;1.40;;;29.40;27.90;;;;;;2235638;62;20370;-62
2023/07/02 02:49:28;0.00;0.00;0.62;0.00;0.00;0.62;1.80;1.40;;;29.40;27.90;;;;;;2232676;62;20962;-63
2023/07/02 02:52:14;0.00;0.00;0.62;0.00;0.00;0.62;2.23;1.50;;;29.40;27.90;;;;;;2234978;62;20406;-63
2023/07/02 02:54:59;0.00;0.00;0.62;0.00;0.00;0.62;2.30;1.53;;;29.40;27.90;;;;;;2235574;62;20952;-63
2023/07/02 02:57:44;0.00;0.00;0.62;0.00;0.00;0.62;2.20;1.60;;;29.40;27.90;;;;;;2235744;62;20367;-62
2023/07/02 03:00:30;0.00;0.00;0.62;0.00;0.00;0.62;1.70;1.30;;;29.40;27.80;;;;;;2234967;62;20397;-62
2023/07/02 03:03:16;0.00;0.00;0.62;0.00;0.00;0.62;1.80;1.33;;;29.40;27.80;;;;;;2235641;62;20390;-63
2023/07/02 03:06:01;0.00;0.00;0.62;0.00;0.00;0.62;2.10;1.23;;;29.40;27.80;;;;;;2235258;62;20419;-63
2023/07/02 03:08:46;0.00;0.00;0.62;0.00;0.00;0.62;2.03;1.83;;;29.40;27.80;;;;;;2235723;62;20773;-63
2023/07/02 03:11:31;0.00;0.00;0.62;0.00;0.00;0.62;2.20;1.57;;;29.40;27.80;;;;;;2233036;62;20370;-63
2023/07/02 03:14:16;0.00;0.00;0.62;0.00;0.00;0.62;2.20;1.20;;;29.40;27.80;;;;;;2235132;62;20393;-63
2023/07/02 03:17:03;0.00;0.00;0.62;0.00;0.00;0.62;1.80;1.30;;;29.40;27.80;;;;;;2235880;62;20366;-63
2023/07/02 03:19:47;0.00;0.00;0.62;0.00;0.00;0.62;1.80;1.50;;;29.40;27.80;;;;;;2236198;62;20496;-63
2023/07/02 03:22:32;0.00;0.00;0.62;0.00;0.00;0.62;2.60;1.80;;;29.40;27.80;;;;;;2236305;62;21125;-62
2023/07/02 03:25:17;0.00;0.00;0.62;0.00;0.00;0.62;1.70;1.30;;;29.40;27.80;;;;;;2236864;62;20889;-63
2023/07/02 03:28:03;0.00;0.00;0.62;0.00;0.00;0.62;1.93;1.40;;;29.40;27.80;;;;;;2236051;62;20412;-63
2023/07/02 03:30:47;0.00;0.00;0.62;0.00;0.00;0.62;1.80;1.40;;;29.30;27.80;;;;;;2236916;62;20481;-62
2023/07/02 03:33:33;0.00;0.00;0.62;0.00;0.00;0.62;3.53;1.20;;;29.40;27.80;;;;;;2236894;62;20402;-63
2023/07/02 03:36:18;0.00;0.00;0.62;0.00;0.00;0.62;1.70;1.30;;;29.40;27.80;;;;;;2235908;62;20386;-62
2023/07/02 03:39:04;0.00;0.00;0.62;0.00;0.00;0.62;2.20;1.77;;;29.30;27.80;;;;;;2235967;62;20418;-63
2023/07/02 03:41:48;0.00;0.00;0.62;0.00;0.00;0.62;3.00;1.57;;;29.30;27.80;;;;;;2236724;62;20365;-61
2023/07/02 03:44:33;0.00;0.00;0.62;0.00;0.00;0.62;2.07;1.87;;;29.30;27.80;;;;;;2236143;62;20962;-62
2023/07/02 03:47:19;0.00;0.00;0.62;0.00;0.00;0.62;2.40;1.87;;;29.30;27.80;;;;;;2236571;62;20896;-61
2023/07/02 03:50:06;0.00;0.00;0.62;0.00;0.00;0.62;2.40;1.87;;;29.30;27.80;;;;;;2235949;62;20386;-61
2023/07/02 03:52:51;0.00;0.00;0.62;0.00;0.00;0.62;2.60;2.20;;;29.30;27.80;;;;;;2236773;62;20366;-62
2023/07/02 03:55:36;0.00;0.00;0.62;0.00;0.00;0.62;2.77;2.47;;;29.30;27.80;;;;;;2236428;62;20389;-64
2023/07/02 03:58:21;0.00;0.00;0.62;0.00;0.00;0.62;2.57;2.13;;;29.30;27.80;;;;;;2235297;62;20362;-61
2023/07/02 04:01:06;0.00;0.00;0.62;0.00;0.00;0.62;2.67;2.23;;;29.30;27.80;;;;;;2236698;62;20369;-63
2023/07/02 04:03:52;0.00;0.00;0.62;0.00;0.00;0.62;2.83;2.53;;;29.30;27.80;;;;;;2236632;62;20403;-63
2023/07/02 04:06:38;0.00;0.00;0.62;0.00;0.00;0.62;3.33;2.27;;;29.30;27.80;;;;;;2235826;62;20422;-63
2023/07/02 04:09:23;0.00;0.00;0.62;0.00;0.00;0.62;3.30;2.63;;;29.30;27.80;;;;;;2236092;62;20425;-63
2023/07/02 04:12:08;0.00;0.00;0.62;0.00;0.00;0.62;3.13;2.83;;;29.30;27.80;;;;;;2236417;62;20863;-63
2023/07/02 04:14:53;0.00;0.00;0.62;0.00;0.00;0.62;3.63;3.23;;;29.30;27.80;;;;;;2236681;62;20414;-63
2023/07/02 04:17:37;0.00;0.00;0.62;0.00;0.00;0.62;2.80;2.33;;;29.30;27.80;;;;;;2236648;62;20463;-62
2023/07/02 04:20:22;0.00;0.00;0.62;0.00;0.00;0.62;3.07;2.77;;;29.30;27.80;;;;;;2232253;62;20772;-62
2023/07/02 04:23:08;0.00;0.00;0.62;0.00;0.00;0.62;3.30;2.67;;;29.30;27.80;;;;;;2236550;62;20438;-63
2023/07/02 04:25:53;0.00;0.00;0.62;0.00;0.00;0.62;2.70;2.10;;;29.20;27.80;;;;;;2236584;62;20413;-63
2023/07/02 04:28:37;0.00;0.00;0.62;0.00;0.00;0.62;2.87;2.43;;;29.30;27.80;;;;;;2235295;62;20958;-61
2023/07/02 04:31:22;0.00;0.00;0.62;0.00;0.00;0.62;3.80;2.50;;;29.30;27.80;;;;;;2236384;61;20522;-60
2023/07/02 04:34:06;0.00;0.00;0.62;0.00;0.00;0.62;4.53;2.50;;;29.30;27.80;;;;;;2236589;62;20394;-61
2023/07/02 04:36:51;0.00;0.00;0.62;0.00;0.00;0.62;4.57;3.20;;;29.30;28.10;;;;;;2236157;62;20370;-63
2023/07/02 04:39:37;0.00;0.00;0.62;0.00;0.00;0.62;3.13;2.83;;;29.30;27.80;;;;;;2236134;62;20410;-63
2023/07/02 04:42:21;0.00;0.00;0.62;0.00;0.00;0.62;3.57;3.27;;;29.30;27.80;;;;;;2235778;62;20772;-62
2023/07/02 04:45:08;0.00;0.00;0.62;0.00;0.00;0.62;4.80;3.17;;;29.30;27.80;;;;;;2236484;62;20450;-61
2023/07/02 04:47:53;0.00;0.00;0.62;0.00;0.00;0.62;3.27;2.97;;;29.30;27.80;;;;;;2236434;62;20379;-63
2023/07/02 04:50:38;0.00;0.00;0.62;0.00;0.00;0.62;4.60;3.83;;;29.30;27.80;;;;;;2235329;62;20451;-63
2023/07/02 04:53:22;0.00;0.00;0.62;0.00;0.00;0.62;4.13;3.13;;;29.30;27.80;;;;;;2236397;62;20933;-62
2023/07/02 04:56:09;0.00;0.00;0.62;0.00;0.00;0.62;4.70;4.30;;;29.30;27.80;;;;;;2236497;62;20826;-61
2023/07/02 04:58:53;0.00;0.00;0.62;0.00;0.00;0.62;4.47;3.60;;;29.20;27.70;;;;;;2235812;62;20374;-63
2023/07/02 05:01:38;0.00;0.00;0.62;0.00;0.00;0.62;5.07;4.57;;;29.30;27.80;;;;;;2236560;62;20422;-63
2023/07/02 05:04:23;0.00;0.00;0.62;0.00;0.00;0.62;4.10;3.70;;;29.20;27.70;;;;;;2235107;62;20482;-64
2023/07/02 05:07:07;0.00;0.00;0.62;0.00;0.00;0.62;4.10;3.70;;;29.20;27.70;;;;;;2236427;62;20422;-64
2023/07/02 05:09:52;0.00;0.00;0.62;0.00;0.00;0.62;5.40;4.10;;;29.20;27.70;;;;;;2235935;62;20603;-63
2023/07/02 05:12:38;0.00;0.00;0.62;0.00;0.00;0.62;5.30;4.73;;;29.20;27.70;;;;;;2235531;62;20421;-63
2023/07/02 05:15:24;0.00;0.00;0.62;0.00;0.00;0.62;5.50;4.40;;;29.20;27.70;;;;;;2236406;62;20461;-63
2023/07/02 05:18:09;0.00;0.00;0.62;0.00;0.00;0.62;4.27;3.87;;;29.20;27.70;;;;;;2236599;62;20369;-61
2023/07/02 05:20:54;0.00;0.00;0.62;0.00;0.00;0.62;5.20;4.30;;;29.20;28.20;;;;;;2235622;62;20462;-59
2023/07/02 05:23:39;0.00;0.00;0.62;0.00;0.00;0.62;5.00;4.50;;;29.20;27.60;;;;;;2236563;62;20389;-61
2023/07/02 05:26:23;0.00;0.00;0.62;0.00;0.00;0.62;4.90;4.40;;;29.20;27.60;;;;;;2235583;62;20362;-61
2023/07/02 05:29:10;0.00;0.00;0.62;0.00;0.00;0.62;4.87;4.10;;;29.20;27.60;;;;;;2235878;62;20366;-58
2023/07/02 05:31:55;0.00;0.00;0.62;0.00;0.00;0.62;4.70;4.00;;;29.20;28.10;;;;;;2236485;62;20370;-61
2023/07/02 05:34:39;0.00;0.00;0.62;0.00;0.00;0.62;5.87;4.20;;;29.20;27.60;;;;;;2235520;62;20862;-59
2023/07/02 05:37:24;0.00;0.00;0.62;0.00;0.00;0.62;5.40;4.13;;;29.20;27.60;;;;;;2236295;62;20370;-60
2023/07/02 05:40:09;0.00;0.00;0.62;0.00;0.00;0.62;5.30;4.60;;;29.20;27.60;;;;;;2236053;62;20398;-61
2023/07/02 05:42:54;0.00;0.00;0.62;0.00;0.00;0.62;4.80;4.20;;;29.20;28.10;;;;;;2235164;61;20916;-59
2023/07/02 05:45:40;0.00;0.00;0.62;0.00;0.00;0.62;5.57;3.90;;;29.20;27.60;;;;;;2236475;62;20937;-61
2023/07/02 05:48:25;0.00;0.00;0.62;0.00;0.00;0.62;5.00;3.50;;;29.20;27.60;;;;;;2235380;62;20426;-61
2023/07/02 05:51:09;0.00;0.00;0.62;0.00;0.00;0.62;4.77;4.27;;;29.20;27.50;;;;;;2236363;62;20410;-57
2023/07/02 05:53:54;0.00;0.00;0.62;0.00;0.00;0.62;4.67;3.87;;;29.20;27.50;;;;;;2236384;62;20876;-62
2023/07/02 05:56:39;0.00;0.00;0.62;0.00;0.00;0.62;3.83;3.43;;;29.20;27.60;;;;;;2235492;62;20401;-61
2023/07/02 05:59:23;0.00;0.00;0.62;0.00;0.00;0.62;4.60;3.87;;;29.20;27.60;;;;;;2235591;62;20373;-62
2023/07/02 06:02:09;0.00;0.00;0.62;0.00;0.00;0.62;5.10;3.77;;;29.20;27.50;;;;;;2236047;62;20450;-63
2023/07/02 06:04:54;0.00;0.00;0.62;0.00;0.00;0.62;6.00;3.90;;;29.20;27.60;;;;;;2235150;62;20470;-62
2023/07/02 06:07:39;0.00;0.00;0.62;0.00;0.00;0.62;4.17;3.77;;;29.20;27.50;;;;;;2235864;62;20415;-60
2023/07/02 06:10:23;0.00;0.00;0.62;0.00;0.00;0.62;5.00;3.60;;;29.20;27.50;;;;;;2235496;62;20433;-61
2023/07/02 06:13:08;0.00;0.00;0.62;0.00;0.00;0.62;4.20;3.40;;;29.20;27.60;;;;;;2236086;62;20386;-62
2023/07/02 06:15:53;0.00;0.00;0.62;0.00;0.00;0.62;5.80;4.27;;;29.20;27.50;;;;;;2236268;62;20370;-61
2023/07/02 06:18:38;0.00;0.00;0.62;0.00;0.00;0.62;4.00;3.40;;;29.20;27.50;;;;;;2235224;62;20398;-62
2023/07/02 06:21:29;0.00;0.00;0.62;0.00;0.00;0.62;4.50;3.60;;;29.20;27.60;;;;;;2236245;62;20377;-61
2023/07/02 06:24:14;0.00;0.00;0.62;0.00;0.00;0.62;5.17;4.30;;;29.20;27.50;;;;;;2236321;62;20845;-62
2023/07/02 06:26:59;0.00;0.00;0.62;0.00;0.00;0.62;5.20;4.40;;;29.20;27.50;;;;;;2235352;62;20440;-63
2023/07/02 06:29:43;0.00;0.00;0.62;0.00;0.00;0.62;5.80;5.17;;;29.20;27.50;;;;;;2235620;62;20913;-60
2023/07/02 06:32:28;0.00;0.00;0.62;0.00;0.00;0.62;4.97;4.30;;;29.20;27.50;;;;;;2236260;62;20442;-62
2023/07/02 06:35:14;0.00;0.00;0.62;0.00;0.00;0.62;5.97;4.67;;;29.20;28.10;;;;;;2235733;62;20390;-61
2023/07/02 06:37:59;0.00;0.00;0.62;0.00;0.00;0.62;5.50;4.83;;;29.20;27.50;;;;;;2236116;62;20362;-60
2023/07/02 06:40:44;0.00;0.00;0.62;0.00;0.00;0.62;7.03;5.90;;;29.20;27.50;;;;;;2235605;62;20370;-59
2023/07/02 06:43:29;0.00;0.00;0.62;0.00;0.00;0.62;6.40;5.20;;;29.20;27.50;;;;;;2236050;62;20406;-61
2023/07/02 06:46:13;0.00;0.00;0.62;0.00;0.00;0.62;6.90;5.33;;;29.20;27.60;;;;;;2236162;62;20418;-60
2023/07/02 06:48:58;0.00;0.00;0.62;0.00;0.00;0.62;6.43;5.37;;;29.20;28.10;;;;;;2234864;62;20418;-61
2023/07/02 06:51:45;0.00;0.00;0.62;0.00;0.00;0.62;6.03;4.97;;;29.20;27.50;;;;;;2236242;62;20788;-62
2023/07/02 06:54:30;0.00;0.00;0.62;0.00;0.00;0.62;5.80;5.20;;;29.20;27.60;;;;;;2236303;62;20438;-60
2023/07/02 06:57:16;0.00;0.00;0.62;0.00;0.00;0.62;6.03;5.17;;;29.20;27.50;;;;;;2235766;62;20378;-60
2023/07/02 07:00:01;0.00;0.00;0.62;0.00;0.00;0.62;7.40;5.90;;;29.20;27.50;;;;;;2235429;62;20507;-61
2023/07/02 07:02:46;0.00;0.00;0.62;0.00;0.00;0.62;7.90;6.40;;;29.20;28.00;;;;;;2235349;62;20451;-61
2023/07/02 07:05:31;0.00;0.00;0.62;0.00;0.00;0.62;7.50;6.00;;;29.20;27.50;;;;;;2236023;62;20402;-61
2023/07/02 07:08:17;0.00;0.00;0.62;0.00;0.00;0.62;7.70;5.83;;;29.20;27.50;;;;;;2235730;62;20806;-60
2023/07/02 07:11:02;0.00;0.00;0.62;0.00;0.00;0.62;6.93;6.00;;;29.20;27.50;;;;;;2235341;62;20381;-62
2023/07/02 07:13:47;0.00;0.00;0.62;0.00;0.00;0.62;8.73;6.30;;;29.20;27.50;;;;;;2235956;62;20379;-61
2023/07/02 07:16:32;0.00;0.00;0.62;0.00;0.00;0.62;8.13;5.53;;;29.20;27.50;;;;;;2235678;62;20366;-59
2023/07/02 07:19:17;0.00;0.00;0.62;0.00;0.00;0.62;6.07;5.40;;;29.20;27.50;;;;;;2235037;62;20791;-59
2023/07/02 07:22:02;0.00;0.00;0.62;0.00;0.00;0.62;7.27;6.00;;;29.20;27.50;;;;;;2236135;62;20367;-59
2023/07/02 07:24:48;0.00;0.00;0.62;0.00;0.00;0.62;8.00;6.60;;;29.20;27.50;;;;;;2235563;62;20386;-61
2023/07/02 07:27:33;0.00;0.00;0.62;0.00;0.00;0.62;5.97;4.73;;;29.20;27.50;;;;;;2235975;62;20403;-58
2023/07/02 07:30:22;0.00;0.00;0.62;0.00;0.00;0.62;8.17;6.30;;;29.20;27.50;;;;;;2235647;62;20411;-62
2023/07/02 07:33:06;0.00;0.00;0.62;0.00;0.00;0.62;8.00;6.07;;;29.20;27.50;;;;;;2235196;62;20476;-62
2023/07/02 07:35:51;0.00;0.00;0.62;0.00;0.00;0.62;6.77;5.30;;;29.20;27.50;;;;;;2232709;62;20438;-60
2023/07/02 07:38:36;0.00;0.00;0.62;0.00;0.00;0.62;7.87;6.10;;;29.20;27.50;;;;;;2235395;62;20366;-61
2023/07/02 07:41:22;0.00;0.00;0.62;0.00;0.00;0.62;7.13;5.80;;;29.20;27.50;;;;;;2235401;62;20843;-61
2023/07/02 07:44:07;0.00;0.00;0.62;0.00;0.00;0.62;7.20;5.80;;;29.20;27.40;;;;;;2235926;62;20911;-59
2023/07/02 07:46:51;0.00;0.00;0.62;0.00;0.00;0.62;6.87;5.70;;;29.20;27.40;;;;;;2235471;62;20437;-61
2023/07/02 07:49:36;0.00;0.00;0.62;0.00;0.00;0.62;7.50;5.97;;;29.20;27.40;;;;;;2235408;62;20363;-59
2023/07/02 07:52:21;0.00;0.00;0.62;0.00;0.00;0.62;7.03;5.83;;;29.20;27.40;;;;;;2236164;62;20366;-59
2023/07/02 07:55:06;0.00;0.00;0.62;0.00;0.00;0.62;7.60;5.83;;;29.20;27.40;;;;;;2235016;62;20409;-61
2023/07/02 07:57:52;0.00;0.00;0.62;0.00;0.00;0.62;6.50;5.63;;;29.20;27.40;;;;;;2236075;62;20397;-61
2023/07/02 08:00:37;0.00;0.00;0.62;0.00;0.00;0.62;7.03;6.00;;;29.20;27.40;;;;;;2235783;62;20421;-60
2023/07/02 08:03:22;0.00;0.00;0.62;0.00;0.00;0.62;8.37;6.80;;;29.20;27.50;;;;;;2235038;62;20470;-61
2023/07/02 08:06:07;0.00;0.00;0.62;0.00;0.00;0.62;6.93;5.50;;;29.20;27.40;;;;;;2236380;62;20358;-61
2023/07/02 08:08:51;0.00;0.00;0.62;0.00;0.00;0.62;8.60;6.40;;;29.20;27.40;;;;;;2235843;62;20410;-64
2023/07/02 08:11:36;0.00;0.00;0.62;0.00;0.00;0.62;8.13;6.30;;;29.20;27.40;;;;;;2236413;62;20374;-61
2023/07/02 08:14:22;0.00;0.00;0.62;0.00;0.00;0.62;7.67;6.17;;;29.20;27.40;;;;;;2236694;62;20390;-60
2023/07/02 08:17:06;0.00;0.00;0.62;0.00;0.00;0.62;7.33;6.43;;;29.20;27.40;;;;;;2235593;62;20455;-61
2023/07/02 08:19:51;0.00;0.00;0.62;0.00;0.00;0.62;6.87;6.07;;;29.20;27.40;;;;;;2236271;62;20418;-64
2023/07/02 08:22:36;0.00;0.00;0.62;0.00;0.00;0.62;8.03;6.17;;;29.20;27.40;;;;;;2236535;62;20367;-61
2023/07/02 08:25:21;0.00;0.00;0.62;0.00;0.00;0.62;7.90;6.57;;;29.20;27.40;;;;;;2235709;62;20889;-59
2023/07/02 08:28:06;0.00;0.00;0.62;0.00;0.00;0.62;8.93;6.80;;;29.20;27.40;;;;;;2236751;62;20370;-61
2023/07/02 08:30:53;0.00;0.00;0.62;0.00;0.00;0.62;7.17;6.30;;;29.20;27.40;;;;;;2236166;62;20470;-59
2023/07/02 08:33:38;0.00;0.00;0.62;0.00;0.00;0.62;7.63;6.00;;;29.20;27.40;;;;;;2236103;62;20390;-60
2023/07/02 08:36:23;0.00;0.00;0.62;0.00;0.00;0.62;7.57;6.00;;;29.20;27.30;;;;;;2236560;62;20382;-60
2023/07/02 08:39:07;0.00;0.00;0.62;0.00;0.00;0.62;7.00;5.60;;;29.20;27.30;;;;;;2235137;62;20796;-60
2023/07/02 08:41:52;0.00;0.00;0.62;0.00;0.00;0.62;7.47;6.23;;;29.20;27.30;;;;;;2236653;62;20366;-60
2023/07/02 08:44:37;0.00;0.00;0.62;0.00;0.00;0.62;6.07;5.47;;;29.20;27.30;;;;;;2236367;62;20378;-58
2023/07/02 08:47:24;0.00;0.00;0.62;0.00;0.00;0.62;7.13;6.27;;;29.20;27.30;;;;;;2235630;62;20371;-60
2023/07/02 08:50:10;0.00;0.00;0.62;0.00;0.00;0.62;8.03;6.20;;;29.20;27.30;;;;;;2236189;62;20905;-60
2023/07/02 08:52:54;0.00;0.00;0.62;0.00;0.00;0.62;6.20;5.60;;;29.20;27.30;;;;;;2236369;62;20785;-61
2023/07/02 08:55:40;0.00;0.00;0.62;0.00;0.00;0.62;7.47;5.87;;;29.20;27.30;;;;;;2236224;62;20387;-60
2023/07/02 08:58:24;0.00;0.00;0.62;0.00;0.00;0.62;7.43;5.27;;;29.20;27.20;;;;;;2236226;62;20370;-60
2023/07/02 09:01:12;0.00;0.00;0.62;0.00;0.00;0.62;7.83;5.63;;;29.20;27.20;;;;;;2235544;62;20362;-58
2023/07/02 09:04:00;0.00;0.00;0.62;0.00;0.00;0.62;8.07;6.03;;;29.20;27.20;;;;;;2236539;62;20390;-61
2023/07/02 09:06:45;0.00;0.00;0.62;0.00;0.00;0.62;6.17;5.40;;;29.20;27.20;;;;;;2236442;62;20362;-61
2023/07/02 09:09:30;0.00;0.00;0.62;0.00;0.00;0.62;7.13;6.43;;;29.20;27.20;;;;;;2235266;62;20926;-61
2023/07/02 09:12:27;0.00;0.00;0.62;0.00;0.00;0.62;8.63;6.90;;;29.20;27.20;;;;;;2236443;62;20375;-61
2023/07/02 09:15:14;0.00;0.00;0.62;0.00;0.00;0.62;6.00;5.03;;;29.20;27.20;;;;;;2236369;62;20466;-60
2023/07/02 09:18:00;0.00;0.00;0.62;0.00;0.00;0.62;7.30;5.03;;;29.20;27.10;;;;;;2235979;62;20502;-61
2023/07/02 09:20:46;0.00;0.00;0.62;0.00;0.00;0.62;6.33;5.27;;;29.20;27.10;;;;;;2236369;62;20386;-61
2023/07/02 09:23:35;0.00;0.00;0.62;0.00;0.00;0.62;8.40;5.43;;;29.20;27.10;;;;;;2235569;62;20491;-61
2023/07/02 09:26:21;0.00;0.00;0.62;0.00;0.00;0.62;7.93;5.77;;;29.20;27.10;;;;;;2236467;62;20675;-60
2023/07/02 09:29:05;0.00;0.00;0.62;0.00;0.00;0.62;7.70;5.73;;;29.20;27.10;;;;;;2235896;62;20410;-59
2023/07/02 09:31:51;0.00;0.00;0.62;0.00;0.00;0.62;7.13;6.07;;;29.20;27.10;;;;;;2235712;62;20398;-62
2023/07/02 09:34:40;0.00;0.00;0.62;0.00;0.00;0.62;8.00;5.83;;;29.20;27.10;;;;;;2236366;62;20390;-61
2023/07/02 09:37:26;0.00;0.00;0.62;0.00;0.00;0.62;6.97;5.83;;;29.20;27.00;;;;;;2236287;62;20366;-60
2023/07/02 09:40:11;0.00;0.00;0.62;0.00;0.00;0.62;7.40;5.20;;;29.20;27.00;;;;;;2235725;62;20905;-59
2023/07/02 09:42:57;0.00;0.00;0.62;0.00;0.00;0.62;6.80;6.00;;;29.20;27.00;;;;;;2236224;62;20426;-61
2023/07/02 09:45:45;0.00;0.00;0.62;0.00;0.00;0.62;5.47;4.87;;;29.20;27.00;;;;;;2235610;62;20413;-59
2023/07/02 09:48:34;0.00;0.00;0.62;0.00;0.00;0.62;7.50;5.73;;;29.20;27.00;;;;;;2236119;62;20374;-60
2023/07/02 09:51:19;0.00;0.00;0.62;0.00;0.00;0.62;7.17;6.00;;;29.20;27.00;;;;;;2236333;62;20495;-61
2023/07/02 09:54:05;0.00;0.00;0.62;0.00;0.00;0.62;7.63;5.47;;;29.20;27.00;;;;;;2235581;62;20389;-61
2023/07/02 09:56:51;0.00;0.00;0.62;0.00;0.00;0.62;5.70;5.07;;;29.20;26.90;;;;;;2236260;62;20414;-61
2023/07/02 09:59:35;0.00;0.00;0.62;0.00;0.00;0.62;6.90;6.20;;;29.20;26.90;;;;;;2236037;62;20448;-60
2023/07/02 10:02:20;0.00;0.00;0.62;0.00;0.00;0.62;7.43;5.73;;;29.30;27.00;;;;;;2235878;62;20362;-61
2023/07/02 10:05:05;0.00;0.00;0.62;0.00;0.00;0.62;7.00;5.80;;;29.30;27.00;;;;;;2236403;62;20423;-60
2023/07/02 10:07:50;0.00;0.00;0.62;0.00;0.00;0.62;7.80;6.40;;;29.30;27.00;;;;;;2235497;62;20423;-61
2023/07/02 10:10:37;0.00;0.00;0.62;0.00;0.00;0.62;6.60;5.30;;;29.30;27.00;;;;;;2235766;62;20883;-61
2023/07/02 10:13:27;0.00;0.00;0.62;0.00;0.00;0.62;7.80;5.60;;;29.30;26.90;;;;;;2236334;62;20433;-59
2023/07/02 10:16:12;0.00;0.00;0.62;0.00;0.00;0.62;7.97;5.93;;;29.20;26.80;;;;;;2235510;62;20553;-61
2023/07/02 10:19:09;0.00;0.00;0.62;0.00;0.00;0.62;8.10;5.80;;;29.20;26.80;;;;;;2235666;62;20398;-60
2023/07/02 10:22:02;0.00;0.00;0.62;0.00;0.00;0.62;7.33;5.63;;;29.30;26.90;;;;;;2236245;62;20419;-61
2023/07/02 10:24:57;0.00;0.00;0.62;0.00;0.00;0.62;7.03;5.33;;;29.30;26.90;;;;;;2236020;62;20957;-61
2023/07/02 10:27:43;0.00;0.00;0.62;0.00;0.00;0.62;7.90;6.07;;;29.30;26.90;;;;;;2236299;62;20450;-60
2023/07/02 10:30:33;0.00;0.00;0.62;0.00;0.00;0.62;6.90;5.17;;;29.30;26.90;;;;;;2234726;62;20370;-61
2023/07/02 10:33:18;0.00;0.00;0.62;0.00;0.00;0.62;7.73;5.30;;;29.30;26.90;;;;;;2236326;62;20897;-61
2023/07/02 10:36:04;0.00;0.00;0.62;0.00;0.00;0.62;6.90;5.17;;;29.30;26.90;;;;;;2236307;62;20658;-62
2023/07/02 10:38:49;0.00;0.00;0.62;0.00;0.00;0.62;7.40;5.27;;;29.30;26.80;;;;;;2235017;62;20893;-60
2023/07/02 10:41:34;0.00;0.00;0.62;0.00;0.00;0.62;8.07;5.23;;;29.30;26.80;;;;;;2236351;62;20411;-61
2023/07/02 10:44:20;0.00;0.00;0.62;0.00;0.00;0.62;6.60;5.40;;;29.30;26.80;;;;;;2235845;62;20406;-61
2023/07/02 10:47:06;0.00;0.00;0.62;0.00;0.00;0.62;6.07;4.93;;;29.30;26.80;;;;;;2236115;62;20456;-61
2023/07/02 10:49:51;0.00;0.00;0.62;0.00;0.00;0.62;5.93;5.37;;;29.30;26.80;;;;;;2235759;62;20456;-59
2023/07/02 10:52:39;0.00;0.00;0.62;0.00;0.00;0.62;6.60;5.63;;;29.30;26.70;;;;;;2235350;62;20374;-61